CheckWX is a tool to help pilots better visualize weather data.  It is not intended as a substitute for an official pre-flight weather briefing.

23:23:22 UTC

DXXX METAR
Lomé-Tokoin Airport
Lomé, Togo
Current

1 hour ago

DXXX 192200Z 23006KT 9000 -TSRA BKN010 FEW020CB 25/24 Q1016 TEMPO 4000 TSRA
Observed
Jul-19 @ 22:00 UTC
Wind
  • 230° at 6 KTS
Visibility
9,000 meters
Flight Rules
MVFR
Conditions
Light Thunderstorm, Light Rain
Cloud Levels
  • Broken at 1,000' AGL
  • Few at 2,000' AGL
Temperature
25°C / 77°F
Dewpoint
24°C / 75°F
Humidity
94%
Altimeter
30" Hg
Pressure
1015.92 hPa
Previous

3 hours ago

DXXX 192000Z 22010KT 9000 SCT011 25/24 Q1014 NOSIG
Observed
Jul-19 @ 20:00 UTC
Wind
  • 220° at 10 KTS
Visibility
9,000 meters
Flight Rules
VFR
Cloud Levels
  • Scattered at 1,100' AGL
Temperature
25°C / 77°F
Dewpoint
24°C / 75°F
Humidity
94%
Altimeter
29.94" Hg
Pressure
1013.92 hPa
Previous

6 hours ago

DXXX 191700Z 21014KT 9999 FEW012 26/23 Q1012 NOSIG
Observed
Jul-19 @ 17:00 UTC
Wind
  • 210° at 14 KTS
Visibility
10,000+ meters
Flight Rules
VFR
Cloud Levels
  • Few at 1,200' AGL
Temperature
26°C / 79°F
Dewpoint
23°C / 73°F
Humidity
84%
Altimeter
29.88" Hg
Pressure
1011.92 hPa